createdAt,value
2022-12-08T00:00:24.188Z,57.30
2022-12-08T00:01:24.155Z,57.10
2022-12-08T00:02:24.288Z,58.20
2022-12-08T00:03:24.273Z,56.30
2022-12-08T00:04:24.146Z,54.20
2022-12-08T00:05:24.118Z,55.40
2022-12-08T00:06:24.123Z,55.80
2022-12-08T00:07:24.092Z,56.50
2022-12-08T00:08:24.259Z,57.60
2022-12-08T00:09:24.171Z,57.80
2022-12-08T00:10:48.467Z,57.00
2022-12-08T00:11:24.060Z,55.00
2022-12-08T00:12:24.064Z,55.80
2022-12-08T00:13:24.046Z,55.70
2022-12-08T00:14:24.042Z,55.90
2022-12-08T00:15:24.017Z,56.70
2022-12-08T00:16:24.085Z,55.30
2022-12-08T00:17:23.989Z,58.70
2022-12-08T00:18:24.076Z,58.80
2022-12-08T00:19:23.985Z,55.60
2022-12-08T00:20:23.994Z,55.70
2022-12-08T00:21:24.113Z,53.60
2022-12-08T00:22:23.967Z,52.00
2022-12-08T00:23:23.927Z,51.60
2022-12-08T00:24:23.960Z,50.80
2022-12-08T00:25:23.905Z,51.90
2022-12-08T00:26:23.924Z,45.70
2022-12-08T00:27:23.892Z,47.60
2022-12-08T00:28:24.011Z,47.60
2022-12-08T00:29:23.879Z,49.40
2022-12-08T00:30:23.879Z,51.70
2022-12-08T00:31:23.884Z,47.00
2022-12-08T00:32:23.908Z,47.80
2022-12-08T00:33:23.824Z,51.80
2022-12-08T00:34:23.864Z,47.90
2022-12-08T00:35:23.807Z,47.60
2022-12-08T00:36:23.835Z,47.30
2022-12-08T00:37:23.785Z,52.50
2022-12-08T00:38:23.795Z,48.90
2022-12-08T00:39:23.769Z,46.20
2022-12-08T00:40:23.790Z,46.10
2022-12-08T00:41:23.744Z,48.30
2022-12-08T00:42:23.751Z,49.70
2022-12-08T00:43:23.736Z,48.80
2022-12-08T00:44:23.739Z,43.40
2022-12-08T00:45:23.729Z,43.90
2022-12-08T00:46:23.772Z,51.20
2022-12-08T00:47:25.127Z,48.30
2022-12-08T00:48:23.704Z,45.50
2022-12-08T00:49:23.666Z,43.30
2022-12-08T00:50:23.698Z,43.80
2022-12-08T00:51:23.650Z,45.50
2022-12-08T00:52:23.655Z,43.40
2022-12-08T00:53:23.619Z,40.80
2022-12-08T00:54:23.630Z,42.40
2022-12-08T00:55:23.604Z,44.20
2022-12-08T00:56:23.621Z,44.00
2022-12-08T00:57:23.578Z,43.80
2022-12-08T00:58:23.595Z,42.20
2022-12-08T00:59:23.555Z,38.50
2022-12-08T01:00:23.569Z,41.60
2022-12-08T01:01:23.566Z,37.60
2022-12-08T01:02:23.550Z,39.60
2022-12-08T01:03:23.532Z,37.40
2022-12-08T01:04:23.528Z,38.50
2022-12-08T01:05:23.497Z,37.50
2022-12-08T01:06:23.522Z,38.80
2022-12-08T01:07:23.474Z,36.80
2022-12-08T01:08:23.552Z,38.60
2022-12-08T01:09:23.452Z,39.80
2022-12-08T01:10:23.465Z,34.90
2022-12-08T01:11:23.451Z,36.50
2022-12-08T01:12:23.448Z,37.60
2022-12-08T01:13:23.414Z,33.80
2022-12-08T01:14:23.425Z,33.60
2022-12-08T01:15:23.392Z,35.80
2022-12-08T01:16:23.424Z,36.60
2022-12-08T01:17:23.387Z,36.30
2022-12-08T01:18:23.393Z,34.10
2022-12-08T01:19:23.348Z,36.20
2022-12-08T01:20:23.364Z,36.30
2022-12-08T01:21:23.330Z,36.50
2022-12-08T01:22:23.354Z,36.70
2022-12-08T01:23:23.314Z,38.40
2022-12-08T01:24:23.318Z,38.00
2022-12-08T01:25:23.286Z,38.40
2022-12-08T01:26:23.302Z,38.30
2022-12-08T01:27:23.310Z,38.00
2022-12-08T01:28:23.266Z,41.30
2022-12-08T01:29:23.285Z,41.30
2022-12-08T01:30:23.242Z,43.20
2022-12-08T01:31:23.359Z,43.30
2022-12-08T01:32:23.222Z,43.60
2022-12-08T01:33:23.244Z,42.30
2022-12-08T01:34:23.206Z,41.20
2022-12-08T01:35:23.209Z,43.70
2022-12-08T01:36:23.186Z,41.50
2022-12-08T01:37:23.190Z,42.60
2022-12-08T01:38:23.169Z,44.40
2022-12-08T01:39:23.167Z,41.90
2022-12-08T01:40:23.136Z,42.70
2022-12-08T01:41:23.147Z,45.60
2022-12-08T01:42:23.123Z,46.30
2022-12-08T01:43:23.162Z,47.50
2022-12-08T01:44:23.091Z,45.30
2022-12-08T01:45:23.109Z,46.20
2022-12-08T01:46:23.122Z,48.40
2022-12-08T01:47:23.091Z,49.50
2022-12-08T01:48:23.085Z,45.70
2022-12-08T01:49:23.076Z,49.20
2022-12-08T01:50:23.039Z,49.10
2022-12-08T01:51:23.041Z,46.80
2022-12-08T01:52:23.008Z,51.20
2022-12-08T01:53:23.028Z,51.20
2022-12-08T01:54:22.997Z,50.20
2022-12-08T01:55:22.998Z,49.50
2022-12-08T01:56:22.971Z,48.40
2022-12-08T01:57:22.983Z,51.60
2022-12-08T01:58:22.971Z,49.10
2022-12-08T01:59:22.975Z,51.30
2022-12-08T02:00:22.926Z,49.30
2022-12-08T02:01:23.024Z,45.90
2022-12-08T02:02:22.952Z,48.20
2022-12-08T02:03:22.931Z,46.30
2022-12-08T02:04:22.887Z,46.60
2022-12-08T02:05:22.911Z,46.10
2022-12-08T02:06:22.866Z,45.60
2022-12-08T02:07:22.879Z,46.10
2022-12-08T02:08:22.915Z,45.50
2022-12-08T02:09:22.853Z,44.10
2022-12-08T02:10:22.836Z,48.00
2022-12-08T02:11:22.841Z,45.30
2022-12-08T02:12:22.800Z,45.80
2022-12-08T02:13:22.815Z,45.80
2022-12-08T02:14:22.784Z,48.10
2022-12-08T02:15:22.830Z,43.50
2022-12-08T02:16:22.814Z,42.30
2022-12-08T02:17:22.775Z,45.30
2022-12-08T02:18:22.738Z,45.30
2022-12-08T02:19:30.898Z,42.90
2022-12-08T02:20:22.736Z,43.80
2022-12-08T02:21:22.754Z,44.90
2022-12-08T02:22:22.702Z,42.60
2022-12-08T02:23:22.715Z,43.70
2022-12-08T02:24:22.677Z,43.20
2022-12-08T02:25:22.691Z,44.40
2022-12-08T02:26:22.668Z,42.20
2022-12-08T02:27:22.665Z,44.80
2022-12-08T02:28:22.633Z,39.20
2022-12-08T02:29:22.663Z,41.70
2022-12-08T02:30:22.615Z,42.50
2022-12-08T02:31:22.760Z,42.50
2022-12-08T02:32:22.596Z,42.00
2022-12-08T02:33:22.613Z,39.20
2022-12-08T02:34:22.576Z,42.20
2022-12-08T02:35:22.593Z,43.80
2022-12-08T02:36:22.552Z,41.90
2022-12-08T02:37:22.585Z,42.60
2022-12-08T02:38:22.538Z,42.50
2022-12-08T02:39:22.552Z,44.60
2022-12-08T02:40:22.513Z,44.30
2022-12-08T02:41:22.549Z,41.70
2022-12-08T02:42:22.505Z,41.90
2022-12-08T02:43:22.502Z,44.50
2022-12-08T02:44:22.475Z,43.70
2022-12-08T02:45:22.487Z,42.00
2022-12-08T02:46:22.560Z,40.50
2022-12-08T02:47:22.491Z,42.80
2022-12-08T02:48:22.431Z,40.00
2022-12-08T02:49:22.450Z,42.70
2022-12-08T02:50:22.412Z,40.70
2022-12-08T02:51:22.419Z,40.60
2022-12-08T02:52:22.400Z,40.60
2022-12-08T02:53:22.413Z,42.60
2022-12-08T02:54:22.369Z,40.10
2022-12-08T02:55:22.382Z,39.20
2022-12-08T02:56:22.347Z,40.70
2022-12-08T02:57:22.360Z,38.40
2022-12-08T02:58:22.352Z,39.20
2022-12-08T02:59:22.337Z,39.40
2022-12-08T03:00:22.306Z,43.20
2022-12-08T03:01:22.349Z,39.30
2022-12-08T03:02:22.328Z,37.50
2022-12-08T03:03:22.304Z,39.90
2022-12-08T03:04:22.279Z,39.60
2022-12-08T03:05:22.275Z,39.30
2022-12-08T03:06:22.243Z,37.20
2022-12-08T03:07:22.255Z,41.30
2022-12-08T03:08:22.321Z,38.40
2022-12-08T03:09:22.245Z,36.80
2022-12-08T03:10:22.210Z,37.90
2022-12-08T03:11:22.222Z,40.20
2022-12-08T03:12:22.202Z,37.60
2022-12-08T03:13:22.192Z,37.00
2022-12-08T03:14:22.200Z,39.10
2022-12-08T03:15:22.181Z,35.90
2022-12-08T03:16:22.277Z,37.30
2022-12-08T03:17:22.158Z,38.10
2022-12-08T03:18:22.139Z,39.00
2022-12-08T03:19:22.140Z,36.70
2022-12-08T03:20:22.109Z,38.50
2022-12-08T03:21:22.109Z,38.00
2022-12-08T03:22:22.082Z,37.50
2022-12-08T03:23:22.097Z,36.60
2022-12-08T03:24:22.056Z,38.20
2022-12-08T03:25:22.081Z,36.20
2022-12-08T03:26:22.048Z,37.70
2022-12-08T03:27:22.052Z,36.20
2022-12-08T03:28:22.037Z,37.50
2022-12-08T03:29:22.029Z,34.80
2022-12-08T03:30:22.064Z,36.00
2022-12-08T03:31:22.145Z,36.20
2022-12-08T03:32:21.974Z,37.90
2022-12-08T03:33:22.007Z,37.20
2022-12-08T03:34:21.951Z,38.10
2022-12-08T03:35:21.976Z,37.00
2022-12-08T03:36:21.941Z,36.40
2022-12-08T03:37:21.944Z,37.00
2022-12-08T03:38:21.909Z,35.40
2022-12-08T03:39:21.922Z,36.80
2022-12-08T03:40:21.899Z,38.60
2022-12-08T03:41:21.914Z,36.40
2022-12-08T03:42:21.874Z,36.30
2022-12-08T03:43:21.890Z,37.40
2022-12-08T03:44:21.849Z,38.40
2022-12-08T03:45:21.880Z,39.40
2022-12-08T03:46:54.962Z,38.30
2022-12-08T03:47:55.993Z,38.70
2022-12-08T03:48:55.945Z,40.20
2022-12-08T03:49:55.946Z,42.20
2022-12-08T03:50:56.056Z,40.80
2022-12-08T03:51:55.923Z,42.90
2022-12-08T03:52:55.909Z,41.30
2022-12-08T03:53:55.936Z,40.40
2022-12-08T03:54:55.868Z,44.40
2022-12-08T03:55:55.900Z,43.30
2022-12-08T03:56:55.845Z,40.70
2022-12-08T03:57:55.858Z,45.30
2022-12-08T03:58:55.864Z,46.40
2022-12-08T03:59:55.840Z,45.30
2022-12-08T04:00:55.827Z,50.60
2022-12-08T04:01:55.861Z,53.60
2022-12-08T04:02:55.847Z,51.60
2022-12-08T04:03:55.841Z,50.20
2022-12-08T04:04:55.784Z,50.20
2022-12-08T04:05:55.789Z,55.20
2022-12-08T04:06:55.756Z,52.30
2022-12-08T04:07:55.794Z,55.00
2022-12-08T04:08:55.727Z,63.10
2022-12-08T04:09:55.738Z,49.70
2022-12-08T04:10:55.733Z,57.00
2022-12-08T04:11:55.733Z,61.10
2022-12-08T04:12:55.703Z,58.60
2022-12-08T04:13:55.714Z,51.00
2022-12-08T04:14:55.699Z,50.80
2022-12-08T04:15:55.750Z,51.20
2022-12-08T04:16:55.671Z,48.00
2022-12-08T04:17:55.662Z,58.00
2022-12-08T04:18:55.626Z,59.10
2022-12-08T04:19:55.632Z,58.50
2022-12-08T04:20:55.608Z,55.30
2022-12-08T04:21:55.620Z,52.30
2022-12-08T04:22:55.597Z,55.30
2022-12-08T04:24:00.823Z,58.60
2022-12-08T04:24:55.568Z,57.20
2022-12-08T04:25:55.582Z,56.60
2022-12-08T04:26:55.554Z,49.80
2022-12-08T04:27:55.578Z,56.10
2022-12-08T04:28:55.528Z,48.90
2022-12-08T04:29:55.539Z,52.50
2022-12-08T04:30:55.522Z,51.70
2022-12-08T04:31:55.625Z,48.80
2022-12-08T04:32:55.497Z,56.90
2022-12-08T04:33:55.502Z,56.50
2022-12-08T04:34:55.456Z,60.90
2022-12-08T04:35:55.485Z,66.90
2022-12-08T04:36:55.479Z,68.30
2022-12-08T04:37:55.448Z,61.90
2022-12-08T04:38:55.437Z,60.00
2022-12-08T04:39:55.456Z,61.20
2022-12-08T04:40:55.389Z,71.50
2022-12-08T04:41:55.409Z,74.50
2022-12-08T04:42:55.385Z,77.40
2022-12-08T04:43:55.395Z,104.10
2022-12-08T04:44:55.369Z,103.40
2022-12-08T04:45:55.365Z,126.60
2022-12-08T04:46:55.428Z,115.80
2022-12-08T04:47:55.339Z,146.40
2022-12-08T04:48:55.333Z,137.50
2022-12-08T04:49:55.330Z,138.20
2022-12-08T04:50:55.320Z,122.50
2022-12-08T04:51:55.310Z,149.10
2022-12-08T04:52:55.269Z,148.80
2022-12-08T04:53:55.310Z,158.90
2022-12-08T04:54:55.246Z,216.90
2022-12-08T04:55:55.280Z,184.20
2022-12-08T04:56:55.264Z,193.90
2022-12-08T04:57:55.251Z,174.90
2022-12-08T04:58:55.205Z,216.80
2022-12-08T04:59:55.236Z,207.50
2022-12-08T05:00:55.263Z,187.40
2022-12-08T05:01:55.404Z,170.10
2022-12-08T05:02:55.218Z,204.30
2022-12-08T05:03:55.188Z,192.50
2022-12-08T05:04:55.155Z,256.20
2022-12-08T05:05:55.186Z,213.80
2022-12-08T05:06:55.145Z,285.90
2022-12-08T05:07:55.234Z,170.90
2022-12-08T05:08:55.119Z,276.80
2022-12-08T05:09:55.173Z,172.20
2022-12-08T05:10:55.085Z,161.90
2022-12-08T05:11:55.106Z,217.80
2022-12-08T05:12:55.057Z,221.90
2022-12-08T05:13:55.078Z,179.00
2022-12-08T05:14:55.040Z,234.10
2022-12-08T05:15:55.181Z,261.90
2022-12-08T05:16:55.084Z,301.30
2022-12-08T05:17:55.074Z,302.90
2022-12-08T05:18:55.020Z,291.00
2022-12-08T05:19:55.015Z,263.40
2022-12-08T05:20:55.000Z,216.10
2022-12-08T05:21:55.005Z,276.20
2022-12-08T05:22:54.962Z,308.20
2022-12-08T05:23:54.980Z,292.50
2022-12-08T05:24:54.946Z,311.40
2022-12-08T05:25:54.964Z,320.70
2022-12-08T05:26:54.925Z,303.10
2022-12-08T05:28:06.252Z,265.60
2022-12-08T05:28:54.904Z,254.70
2022-12-08T05:29:54.913Z,257.80
2022-12-08T05:30:54.902Z,310.20
2022-12-08T05:31:54.947Z,228.00
2022-12-08T05:32:54.855Z,225.60
2022-12-08T05:33:57.422Z,297.20
2022-12-08T05:34:54.866Z,250.00
2022-12-08T05:35:54.851Z,268.70
2022-12-08T05:36:54.977Z,296.20
2022-12-08T05:37:54.854Z,294.00
2022-12-08T05:38:54.794Z,301.30
2022-12-08T05:39:54.805Z,246.50
2022-12-08T05:40:54.771Z,224.10
2022-12-08T05:41:54.812Z,233.60
2022-12-08T05:42:54.773Z,260.40
2022-12-08T05:43:54.763Z,260.40
2022-12-08T05:44:54.729Z,166.70
2022-12-08T05:45:54.826Z,256.80
2022-12-08T05:46:54.743Z,282.30
2022-12-08T05:47:54.731Z,250.70
2022-12-08T05:48:54.727Z,279.20
2022-12-08T05:49:54.722Z,274.50
2022-12-08T05:50:54.680Z,297.10
2022-12-08T05:51:54.699Z,280.90
2022-12-08T05:52:54.680Z,287.70
2022-12-08T05:53:54.677Z,274.70
2022-12-08T05:54:54.652Z,273.40
2022-12-08T05:55:54.684Z,299.30
2022-12-08T05:56:54.626Z,289.30
2022-12-08T05:57:54.640Z,244.40
2022-12-08T05:58:54.591Z,228.70
2022-12-08T05:59:54.598Z,300.50
2022-12-08T06:00:54.566Z,275.10
2022-12-08T06:01:54.626Z,274.50
2022-12-08T06:02:54.685Z,248.80
2022-12-08T06:03:54.564Z,301.20
2022-12-08T06:04:54.536Z,299.20
2022-12-08T06:05:54.554Z,246.40
2022-12-08T06:06:54.504Z,259.20
2022-12-08T06:07:54.589Z,291.10
2022-12-08T06:08:54.496Z,293.40
2022-12-08T06:09:54.499Z,297.30
2022-12-08T06:10:54.474Z,282.80
2022-12-08T06:11:54.517Z,293.10
2022-12-08T06:12:54.444Z,301.20
2022-12-08T06:13:54.473Z,243.90
2022-12-08T06:14:54.436Z,239.00
2022-12-08T06:15:54.455Z,289.50
2022-12-08T06:16:54.582Z,276.80
2022-12-08T06:17:54.424Z,277.10
2022-12-08T06:18:54.429Z,278.80
2022-12-08T06:19:54.392Z,294.50
2022-12-08T06:20:54.359Z,273.20
2022-12-08T06:21:54.368Z,278.80
2022-12-08T06:22:54.340Z,261.50
2022-12-08T06:23:54.375Z,220.50
2022-12-08T06:24:54.331Z,254.60
2022-12-08T06:25:54.331Z,247.80
2022-12-08T06:26:54.304Z,210.40
2022-12-08T06:27:54.310Z,245.60
2022-12-08T06:28:54.331Z,223.20
2022-12-08T06:29:54.306Z,246.10
2022-12-08T06:30:54.278Z,221.60
2022-12-08T06:31:54.343Z,221.90
2022-12-08T06:32:54.230Z,227.40
2022-12-08T06:33:54.251Z,238.00
2022-12-08T06:34:54.228Z,229.70
2022-12-08T06:35:54.237Z,200.40
2022-12-08T06:36:54.219Z,226.80
2022-12-08T06:37:54.208Z,214.40
2022-12-08T06:38:54.190Z,192.60
2022-12-08T06:39:54.215Z,176.40
2022-12-08T06:40:54.175Z,192.70
2022-12-08T06:41:54.171Z,171.40
2022-12-08T06:42:54.138Z,156.20
2022-12-08T06:43:54.143Z,201.20
2022-12-08T06:44:54.121Z,187.70
2022-12-08T06:45:54.195Z,133.80
2022-12-08T06:46:54.099Z,175.70
2022-12-08T06:47:54.108Z,172.20
2022-12-08T06:48:54.073Z,165.20
2022-12-08T06:49:54.087Z,159.70
2022-12-08T06:50:54.063Z,174.10
2022-12-08T06:51:54.062Z,157.40
2022-12-08T06:53:03.116Z,163.60
2022-12-08T06:53:54.054Z,185.30
2022-12-08T06:54:54.008Z,174.30
2022-12-08T06:56:01.313Z,196.00
2022-12-08T06:56:53.992Z,195.60
2022-12-08T06:57:54.279Z,190.70
2022-12-08T06:58:53.972Z,200.10
2022-12-08T06:59:53.979Z,202.40
2022-12-08T07:00:54.114Z,202.90
2022-12-08T07:01:54.040Z,205.40
2022-12-08T07:02:53.969Z,204.70
2022-12-08T07:03:53.933Z,207.20
2022-12-08T07:04:53.901Z,211.30
2022-12-08T07:05:54.782Z,217.00
2022-12-08T07:06:53.899Z,208.60
2022-12-08T07:07:53.959Z,227.40
2022-12-08T07:08:53.873Z,227.50
2022-12-08T07:09:53.882Z,232.10
2022-12-08T07:10:53.844Z,209.80
2022-12-08T07:11:53.864Z,232.00
2022-12-08T07:12:53.834Z,214.40
2022-12-08T07:13:53.835Z,233.00
2022-12-08T07:14:53.814Z,224.60
2022-12-08T07:15:53.816Z,239.10
2022-12-08T07:16:53.942Z,247.70
2022-12-08T07:17:59.531Z,253.50
2022-12-08T07:18:53.766Z,235.20
2022-12-08T07:19:53.774Z,243.90
2022-12-08T07:20:53.760Z,206.10
2022-12-08T07:21:53.765Z,244.50
2022-12-08T07:22:53.732Z,223.50
2022-12-08T07:23:57.678Z,240.40
2022-12-08T07:24:53.717Z,252.50
2022-12-08T07:25:53.720Z,234.10
2022-12-08T07:26:53.709Z,229.50
2022-12-08T07:27:53.685Z,237.70
2022-12-08T07:28:53.697Z,242.10
2022-12-08T07:29:53.646Z,228.80
2022-12-08T07:30:53.698Z,247.10
2022-12-08T07:31:53.630Z,250.00
2022-12-08T07:32:53.650Z,229.50
2022-12-08T07:33:53.619Z,246.40
2022-12-08T07:34:53.619Z,238.70
2022-12-08T07:35:53.589Z,252.70
2022-12-08T07:36:53.604Z,241.10
2022-12-08T07:37:53.563Z,248.40
2022-12-08T07:38:53.589Z,258.30
2022-12-08T07:39:53.561Z,271.10
2022-12-08T07:40:53.576Z,264.60
2022-12-08T07:41:53.517Z,243.90
2022-12-08T07:42:53.534Z,279.40
2022-12-08T07:43:53.614Z,257.50
2022-12-08T07:44:53.538Z,281.00
2022-12-08T07:45:53.549Z,271.50
2022-12-08T07:46:53.487Z,262.40
2022-12-08T07:47:53.484Z,288.40
2022-12-08T07:48:53.487Z,283.40
2022-12-08T07:49:53.443Z,302.40
2022-12-08T07:50:53.463Z,278.40
2022-12-08T07:51:53.444Z,292.90
2022-12-08T07:52:53.460Z,305.70
2022-12-08T07:53:54.860Z,271.90
2022-12-08T07:54:53.413Z,313.00
2022-12-08T07:55:53.405Z,310.70
2022-12-08T07:56:53.388Z,321.00
2022-12-08T07:57:53.352Z,294.10
2022-12-08T07:58:53.380Z,268.50
2022-12-08T07:59:53.368Z,325.20
2022-12-08T08:00:53.561Z,302.80
2022-12-08T08:02:19.545Z,282.90
2022-12-08T08:02:53.520Z,285.50
2022-12-08T08:03:53.318Z,274.10
2022-12-08T08:04:53.476Z,279.90
2022-12-08T08:05:53.271Z,262.10
2022-12-08T08:06:53.321Z,300.20
2022-12-08T08:07:53.316Z,296.70
2022-12-08T08:08:53.268Z,305.80
2022-12-08T08:09:53.285Z,304.10
2022-12-08T08:10:53.247Z,295.00
2022-12-08T08:12:14.725Z,312.20
2022-12-08T08:12:53.230Z,297.40
2022-12-08T08:13:53.189Z,282.40
2022-12-08T08:14:53.200Z,291.50
2022-12-08T08:15:53.315Z,326.80
2022-12-08T08:16:53.318Z,326.90
2022-12-08T08:17:53.171Z,317.50
2022-12-08T08:18:53.170Z,339.50
2022-12-08T08:19:53.137Z,325.80
2022-12-08T08:20:53.164Z,332.90
2022-12-08T08:21:53.122Z,330.40
2022-12-08T08:22:53.119Z,354.00
2022-12-08T08:23:53.083Z,338.20
2022-12-08T08:24:53.108Z,300.40
2022-12-08T08:25:53.083Z,321.90
2022-12-08T08:26:53.085Z,330.20
2022-12-08T08:27:53.044Z,334.90
2022-12-08T08:28:53.060Z,330.70
2022-12-08T08:29:53.046Z,336.30
2022-12-08T08:30:53.108Z,333.70
2022-12-08T08:31:53.007Z,338.70
2022-12-08T08:32:53.028Z,320.80
2022-12-08T08:33:53.022Z,301.30
2022-12-08T08:34:53.000Z,290.20
2022-12-08T08:35:52.961Z,303.50
2022-12-08T08:36:53.049Z,304.40
2022-12-08T08:37:52.976Z,323.40
2022-12-08T08:38:52.976Z,326.70
2022-12-08T08:39:52.921Z,337.30
2022-12-08T08:40:52.944Z,339.60
2022-12-08T08:41:52.912Z,329.90
2022-12-08T08:42:52.919Z,355.90
2022-12-08T08:43:52.884Z,318.10
2022-12-08T08:44:52.896Z,353.90
2022-12-08T08:45:52.915Z,349.20
2022-12-08T08:46:53.001Z,362.20
2022-12-08T08:47:52.843Z,363.20
2022-12-08T08:48:52.853Z,351.40
2022-12-08T08:49:52.819Z,369.40
2022-12-08T08:50:52.835Z,356.90
2022-12-08T08:51:52.844Z,357.90
2022-12-08T08:52:52.816Z,353.00
2022-12-08T08:53:52.793Z,351.60
2022-12-08T08:54:52.810Z,349.00
2022-12-08T08:55:52.759Z,332.80
2022-12-08T08:56:52.780Z,343.40
2022-12-08T08:57:52.757Z,339.10
2022-12-08T08:58:52.748Z,366.10
2022-12-08T08:59:52.732Z,312.30
2022-12-08T09:00:52.756Z,342.60
2022-12-08T09:01:52.744Z,349.80
2022-12-08T09:02:52.716Z,328.20
2022-12-08T09:03:52.677Z,344.10
2022-12-08T09:04:52.760Z,322.00
2022-12-08T09:05:52.750Z,340.90
2022-12-08T09:06:52.683Z,321.00
2022-12-08T09:07:52.692Z,289.90
2022-12-08T09:08:52.649Z,310.60
2022-12-08T09:09:55.803Z,328.90
2022-12-08T09:10:52.671Z,351.50
2022-12-08T09:11:52.612Z,349.00
2022-12-08T09:12:52.606Z,353.60
2022-12-08T09:13:52.576Z,330.50
2022-12-08T09:14:52.584Z,339.30
2022-12-08T09:15:52.675Z,339.70
2022-12-08T09:16:52.579Z,351.10
2022-12-08T09:17:52.530Z,319.50
2022-12-08T09:18:52.543Z,330.90
2022-12-08T09:19:52.505Z,320.30
2022-12-08T09:20:52.516Z,317.70
2022-12-08T09:21:52.498Z,335.40
2022-12-08T09:22:52.513Z,309.90
2022-12-08T09:23:52.469Z,333.00
2022-12-08T09:24:52.478Z,307.00
2022-12-08T09:25:52.453Z,304.40
2022-12-08T09:26:52.457Z,293.00
2022-12-08T09:27:52.441Z,304.80
2022-12-08T09:28:52.447Z,317.20
2022-12-08T09:29:52.416Z,300.20
2022-12-08T09:30:52.485Z,314.50
2022-12-08T09:31:52.535Z,286.60
2022-12-08T09:32:52.422Z,297.90
2022-12-08T09:33:52.409Z,304.70
2022-12-08T09:34:52.530Z,309.50
2022-12-08T09:35:52.346Z,318.50
2022-12-08T09:36:52.364Z,325.30
2022-12-08T09:37:52.324Z,363.20
2022-12-08T09:38:52.369Z,365.60
2022-12-08T09:39:52.301Z,379.80
2022-12-08T09:40:52.317Z,377.10
2022-12-08T09:41:52.278Z,418.30
2022-12-08T09:42:52.307Z,399.20
2022-12-08T09:43:52.267Z,413.00
2022-12-08T09:44:52.318Z,400.00
2022-12-08T09:45:52.243Z,417.80
2022-12-08T09:46:52.364Z,408.80
2022-12-08T09:47:52.231Z,410.30
2022-12-08T09:48:52.242Z,408.90
2022-12-08T09:49:52.223Z,404.90
2022-12-08T09:50:52.240Z,410.00
2022-12-08T09:51:52.179Z,438.40
2022-12-08T09:52:52.191Z,424.20
2022-12-08T09:53:52.178Z,410.60
2022-12-08T09:54:52.184Z,407.70
2022-12-08T09:55:52.149Z,406.80
2022-12-08T09:56:52.162Z,401.70
2022-12-08T09:57:56.293Z,375.30
2022-12-08T09:58:52.139Z,389.40
2022-12-08T09:59:52.115Z,359.00
2022-12-08T10:00:52.133Z,378.70
2022-12-08T10:01:52.184Z,379.80
2022-12-08T10:02:52.139Z,354.90
2022-12-08T10:03:52.073Z,310.60
2022-12-08T10:04:52.137Z,317.00
2022-12-08T10:05:52.041Z,330.90
2022-12-08T10:06:52.047Z,337.30
2022-12-08T10:07:52.121Z,322.90
2022-12-08T10:08:52.041Z,277.40
2022-12-08T10:09:52.011Z,293.80
2022-12-08T10:10:52.018Z,286.50
2022-12-08T10:11:51.972Z,276.70
2022-12-08T10:12:52.001Z,293.50
2022-12-08T10:13:51.959Z,285.30
2022-12-08T10:14:51.990Z,278.00
2022-12-08T10:15:52.006Z,293.60
2022-12-08T10:16:52.031Z,270.50
2022-12-08T10:17:51.917Z,261.90
2022-12-08T10:18:51.937Z,262.60
2022-12-08T10:19:51.894Z,253.80
2022-12-08T10:20:51.949Z,255.40
2022-12-08T10:21:51.874Z,264.60
2022-12-08T10:22:51.893Z,268.50
2022-12-08T10:23:51.860Z,261.20
2022-12-08T10:24:51.858Z,248.40
2022-12-08T10:25:51.841Z,245.20
2022-12-08T10:26:51.874Z,259.30
2022-12-08T10:27:51.824Z,265.80
2022-12-08T10:28:51.836Z,268.80
2022-12-08T10:29:51.799Z,268.00
2022-12-08T10:30:51.817Z,268.50
2022-12-08T10:31:51.836Z,267.80
2022-12-08T10:32:51.790Z,262.50
2022-12-08T10:33:51.803Z,274.10
2022-12-08T10:34:56.208Z,276.40
2022-12-08T10:35:51.725Z,278.80
2022-12-08T10:36:51.733Z,281.60
2022-12-08T10:37:51.703Z,285.20
2022-12-08T10:38:51.755Z,295.10
2022-12-08T10:39:51.689Z,280.10
2022-12-08T10:40:51.714Z,256.00
2022-12-08T10:41:51.683Z,240.60
2022-12-08T10:42:51.677Z,261.90
2022-12-08T10:43:51.651Z,229.20
2022-12-08T10:44:51.675Z,228.10
2022-12-08T10:45:51.621Z,211.70
2022-12-08T10:46:51.689Z,209.30
2022-12-08T10:47:55.404Z,189.80
2022-12-08T10:48:51.627Z,176.30
2022-12-08T10:49:51.579Z,183.80
2022-12-08T10:50:51.632Z,193.50
2022-12-08T10:51:51.574Z,191.00
2022-12-08T10:52:51.602Z,180.40
2022-12-08T10:53:51.538Z,179.30
2022-12-08T10:54:51.550Z,180.70
2022-12-08T10:55:51.549Z,175.50
2022-12-08T10:56:51.568Z,181.90
2022-12-08T10:57:51.511Z,167.00
2022-12-08T10:58:51.506Z,172.40
2022-12-08T10:59:51.482Z,187.30
2022-12-08T11:00:51.565Z,175.50
2022-12-08T11:01:51.643Z,178.40
2022-12-08T11:02:51.591Z,173.60
2022-12-08T11:03:51.459Z,184.50
2022-12-08T11:04:51.448Z,179.30
2022-12-08T11:05:51.432Z,173.20
2022-12-08T11:06:51.441Z,184.10
2022-12-08T11:07:51.453Z,170.50
2022-12-08T11:08:51.491Z,174.00
2022-12-08T11:09:51.377Z,183.70
2022-12-08T11:10:51.400Z,184.70
2022-12-08T11:11:51.383Z,176.10
2022-12-08T11:12:51.369Z,181.90
2022-12-08T11:13:51.357Z,179.80
2022-12-08T11:14:51.361Z,190.20
2022-12-08T11:15:51.338Z,188.60
2022-12-08T11:16:51.459Z,197.90
2022-12-08T11:17:57.451Z,180.00
2022-12-08T11:18:51.336Z,185.20
2022-12-08T11:19:51.278Z,201.90
2022-12-08T11:20:51.309Z,186.90
2022-12-08T11:21:51.296Z,194.90
2022-12-08T11:22:52.023Z,183.50
2022-12-08T11:23:51.231Z,181.20
2022-12-08T11:24:51.263Z,179.60
2022-12-08T11:25:51.219Z,195.70
2022-12-08T11:26:51.249Z,216.90
2022-12-08T11:27:51.194Z,188.80
2022-12-08T11:28:51.236Z,193.10
2022-12-08T11:29:51.181Z,193.50
2022-12-08T11:30:51.189Z,199.00
2022-12-08T11:31:51.211Z,189.60
2022-12-08T11:32:51.175Z,191.30
2022-12-08T11:33:51.136Z,184.20
2022-12-08T11:34:51.169Z,190.30
2022-12-08T11:35:51.106Z,187.30
2022-12-08T11:36:51.123Z,208.50
2022-12-08T11:37:51.090Z,223.40
2022-12-08T11:38:51.135Z,195.80
2022-12-08T11:39:51.061Z,181.70
2022-12-08T11:40:51.101Z,187.90
2022-12-08T11:41:51.039Z,182.10
2022-12-08T11:42:51.918Z,177.90
2022-12-08T11:43:51.057Z,177.60
2022-12-08T11:44:51.028Z,161.10
2022-12-08T11:45:51.087Z,197.60
2022-12-08T11:46:50.996Z,198.70
2022-12-08T11:47:55.607Z,178.80
2022-12-08T11:48:50.979Z,195.70
2022-12-08T11:49:50.987Z,213.50
2022-12-08T11:50:51.002Z,194.60
2022-12-08T11:51:50.987Z,212.10
2022-12-08T11:52:50.943Z,189.50
2022-12-08T11:53:50.957Z,197.90
2022-12-08T11:54:50.935Z,212.80
2022-12-08T11:55:50.919Z,213.00
2022-12-08T11:56:50.953Z,207.30
2022-12-08T11:57:50.985Z,218.10
2022-12-08T11:58:51.008Z,202.40
2022-12-08T11:59:50.904Z,186.60
2022-12-08T12:00:50.863Z,201.00
2022-12-08T12:01:50.907Z,200.10
2022-12-08T12:02:50.880Z,217.00
2022-12-08T12:03:50.840Z,206.00
2022-12-08T12:04:50.818Z,212.90
2022-12-08T12:06:18.295Z,205.70
2022-12-08T12:06:55.050Z,205.80
2022-12-08T12:07:50.886Z,219.40
2022-12-08T12:08:50.775Z,216.50
2022-12-08T12:09:50.771Z,213.90
2022-12-08T12:10:50.745Z,214.20
2022-12-08T12:11:50.771Z,234.20
2022-12-08T12:12:50.741Z,249.80
2022-12-08T12:13:50.741Z,229.80
2022-12-08T12:14:50.699Z,224.20
2022-12-08T12:15:50.728Z,223.60
2022-12-08T12:16:50.760Z,224.40
2022-12-08T12:17:50.710Z,216.00
2022-12-08T12:18:50.671Z,229.40
2022-12-08T12:19:50.673Z,233.00
2022-12-08T12:20:50.670Z,222.10
2022-12-08T12:21:50.669Z,220.10
2022-12-08T12:22:50.650Z,227.70
2022-12-08T12:23:50.639Z,239.90
2022-12-08T12:24:50.600Z,226.00
2022-12-08T12:25:50.620Z,232.90
2022-12-08T12:26:50.615Z,227.70
2022-12-08T12:27:50.604Z,234.90
2022-12-08T12:28:50.569Z,227.60
2022-12-08T12:29:55.491Z,249.50
2022-12-08T12:30:50.600Z,238.80
2022-12-08T12:31:50.552Z,251.10
2022-12-08T12:32:50.544Z,252.30
2022-12-08T12:33:50.544Z,262.50
2022-12-08T12:34:50.501Z,273.70
2022-12-08T12:35:50.531Z,291.30
2022-12-08T12:36:50.479Z,272.40
2022-12-08T12:37:50.485Z,270.10